sensor_id;sensor_type;location;lat;lon;timestamp;pressure;altitude;pressure_sealevel;temperature;humidity
76637;BME280;65532;52.124;5.480;2023-04-15T00:01:44;100867.06;;;6.81;71.37
76637;BME280;65532;52.124;5.480;2023-04-15T00:04:11;100868.50;;;6.77;71.69
76637;BME280;65532;52.124;5.480;2023-04-15T00:06:37;100867.06;;;6.75;71.91
76637;BME280;65532;52.124;5.480;2023-04-15T00:09:05;100857.94;;;6.76;71.94
76637;BME280;65532;52.124;5.480;2023-04-15T00:11:31;100872.22;;;6.76;71.87
76637;BME280;65532;52.124;5.480;2023-04-15T00:13:57;100871.19;;;6.77;71.48
76637;BME280;65532;52.124;5.480;2023-04-15T00:16:24;100862.28;;;6.77;71.93
76637;BME280;65532;52.124;5.480;2023-04-15T00:18:51;100863.53;;;6.74;71.96
76637;BME280;65532;52.124;5.480;2023-04-15T00:21:17;100871.59;;;6.74;72.13
76637;BME280;65532;52.124;5.480;2023-04-15T00:23:44;100871.41;;;6.76;72.74
76637;BME280;65532;52.124;5.480;2023-04-15T00:26:10;100868.09;;;6.74;72.61
76637;BME280;65532;52.124;5.480;2023-04-15T00:28:37;100861.84;;;6.60;73.38
76637;BME280;65532;52.124;5.480;2023-04-15T00:31:04;100863.09;;;6.51;74.58
76637;BME280;65532;52.124;5.480;2023-04-15T00:33:31;100867.00;;;6.42;74.73
76637;BME280;65532;52.124;5.480;2023-04-15T00:35:58;100862.84;;;6.39;74.90
76637;BME280;65532;52.124;5.480;2023-04-15T00:38:24;100858.09;;;6.35;75.47
76637;BME280;65532;52.124;5.480;2023-04-15T00:40:51;100867.78;;;6.29;75.76
76637;BME280;65532;52.124;5.480;2023-04-15T00:43:18;100863.03;;;6.24;76.17
76637;BME280;65532;52.124;5.480;2023-04-15T00:45:45;100863.03;;;6.24;76.78
76637;BME280;65532;52.124;5.480;2023-04-15T00:48:12;100865.31;;;6.27;76.46
76637;BME280;65532;52.124;5.480;2023-04-15T00:50:39;100863.66;;;6.26;76.70
76637;BME280;65532;52.124;5.480;2023-04-15T00:53:06;100874.41;;;6.26;76.67
76637;BME280;65532;52.124;5.480;2023-04-15T00:55:32;100872.13;;;6.23;77.16
76637;BME280;65532;52.124;5.480;2023-04-15T00:57:59;100876.66;;;6.23;77.27
76637;BME280;65532;52.124;5.480;2023-04-15T01:00:26;100876.25;;;6.19;77.61
76637;BME280;65532;52.124;5.480;2023-04-15T01:02:52;100877.91;;;6.20;77.54
76637;BME280;65532;52.124;5.480;2023-04-15T01:05:19;100872.94;;;6.24;77.64
76637;BME280;65532;52.124;5.480;2023-04-15T01:07:47;100874.59;;;6.25;77.15
76637;BME280;65532;52.124;5.480;2023-04-15T01:10:13;100870.47;;;6.22;77.56
76637;BME280;65532;52.124;5.480;2023-04-15T01:12:41;100873.16;;;6.22;77.67
76637;BME280;65532;52.124;5.480;2023-04-15T01:15:08;100872.75;;;6.25;77.33
76637;BME280;65532;52.124;5.480;2023-04-15T01:17:36;100872.94;;;6.24;77.60
76637;BME280;65532;52.124;5.480;2023-04-15T01:20:06;100871.50;;;6.21;77.75
76637;BME280;65532;52.124;5.480;2023-04-15T01:22:35;100874.97;;;6.15;78.46
76637;BME280;65532;52.124;5.480;2023-04-15T01:25:12;100875.59;;;6.11;78.47
76637;BME280;65532;52.124;5.480;2023-04-15T01:27:42;100867.94;;;6.08;78.84
76637;BME280;65532;52.124;5.480;2023-04-15T01:30:09;100876.63;;;6.10;78.79
76637;BME280;65532;52.124;5.480;2023-04-15T01:32:37;100873.50;;;6.06;79.01
76637;BME280;65532;52.124;5.480;2023-04-15T01:35:04;100872.88;;;6.04;79.13
76637;BME280;65532;52.124;5.480;2023-04-15T01:37:31;100866.88;;;6.02;79.50
76637;BME280;65532;52.124;5.480;2023-04-15T01:39:57;100870.81;;;6.06;79.50
76637;BME280;65532;52.124;5.480;2023-04-15T01:42:24;100870.00;;;6.06;79.84
76637;BME280;65532;52.124;5.480;2023-04-15T01:44:50;100872.91;;;6.11;79.64
76637;BME280;65532;52.124;5.480;2023-04-15T01:47:17;100876.19;;;6.06;79.73
76637;BME280;65532;52.124;5.480;2023-04-15T01:49:43;100869.56;;;6.02;80.04
76637;BME280;65532;52.124;5.480;2023-04-15T01:52:10;100874.31;;;6.00;80.46
76637;BME280;65532;52.124;5.480;2023-04-15T01:54:38;100875.53;;;5.97;80.47
76637;BME280;65532;52.124;5.480;2023-04-15T01:57:05;100866.63;;;5.97;81.04
76637;BME280;65532;52.124;5.480;2023-04-15T01:59:31;100871.19;;;5.96;81.02
76637;BME280;65532;52.124;5.480;2023-04-15T02:01:58;100873.44;;;5.93;81.59
76637;BME280;65532;52.124;5.480;2023-04-15T02:04:26;100875.69;;;5.89;81.80
76637;BME280;65532;52.124;5.480;2023-04-15T02:06:53;100870.09;;;5.84;81.54
76637;BME280;65532;52.124;5.480;2023-04-15T02:09:20;100867.56;;;5.83;82.63
76637;BME280;65532;52.124;5.480;2023-04-15T02:11:46;100871.91;;;5.77;83.04
76637;BME280;65532;52.124;5.480;2023-04-15T02:14:13;100882.00;;;5.75;83.42
76637;BME280;65532;52.124;5.480;2023-04-15T02:16:39;100875.19;;;5.72;83.75
76637;BME280;65532;52.124;5.480;2023-04-15T02:19:06;100872.25;;;5.67;84.06
76637;BME280;65532;52.124;5.480;2023-04-15T02:21:36;100879.03;;;5.63;84.59
76637;BME280;65532;52.124;5.480;2023-04-15T02:24:02;100882.13;;;5.60;84.76
76637;BME280;65532;52.124;5.480;2023-04-15T02:26:29;100878.75;;;5.52;85.51
76637;BME280;65532;52.124;5.480;2023-04-15T02:28:58;100882.06;;;5.47;85.90
76637;BME280;65532;52.124;5.480;2023-04-15T02:31:25;100882.84;;;5.41;85.77
76637;BME280;65532;52.124;5.480;2023-04-15T02:33:51;100887.78;;;5.37;86.09
76637;BME280;65532;52.124;5.480;2023-04-15T02:36:18;100882.78;;;5.34;86.83
76637;BME280;65532;52.124;5.480;2023-04-15T02:38:46;100888.34;;;5.33;86.66
76637;BME280;65532;52.124;5.480;2023-04-15T02:41:14;100902.81;;;5.32;87.14
76637;BME280;65532;52.124;5.480;2023-04-15T02:43:43;100894.75;;;5.32;87.13
76637;BME280;65532;52.124;5.480;2023-04-15T02:46:10;100902.16;;;5.30;87.23
76637;BME280;65532;52.124;5.480;2023-04-15T02:48:40;100911.66;;;5.26;87.23
76637;BME280;65532;52.124;5.480;2023-04-15T02:51:29;100908.31;;;5.24;87.10
76637;BME280;65532;52.124;5.480;2023-04-15T02:53:56;100916.78;;;5.21;87.00
76637;BME280;65532;52.124;5.480;2023-04-15T02:56:23;100908.44;;;5.16;87.73
76637;BME280;65532;52.124;5.480;2023-04-15T02:58:49;100922.84;;;5.08;87.52
76637;BME280;65532;52.124;5.480;2023-04-15T03:01:16;100916.38;;;5.02;88.11
76637;BME280;65532;52.124;5.480;2023-04-15T03:03:43;100923.81;;;5.00;88.55
76637;BME280;65532;52.124;5.480;2023-04-15T03:06:09;100925.22;;;4.96;88.23
76637;BME280;65532;52.124;5.480;2023-04-15T03:08:36;100919.81;;;4.90;89.46
76637;BME280;65532;52.124;5.480;2023-04-15T03:11:03;100928.16;;;4.80;88.96
76637;BME280;65532;52.124;5.480;2023-04-15T03:13:31;100923.63;;;4.80;89.77
76637;BME280;65532;52.124;5.480;2023-04-15T03:16:01;100935.97;;;4.75;89.73
76637;BME280;65532;52.124;5.480;2023-04-15T03:18:29;100934.31;;;4.74;90.31
76637;BME280;65532;52.124;5.480;2023-04-15T03:21:00;100941.56;;;4.80;90.39
76637;BME280;65532;52.124;5.480;2023-04-15T03:23:27;100941.75;;;4.78;90.72
76637;BME280;65532;52.124;5.480;2023-04-15T03:25:54;100927.91;;;4.75;90.99
76637;BME280;65532;52.124;5.480;2023-04-15T03:28:23;100933.28;;;4.75;90.87
76637;BME280;65532;52.124;5.480;2023-04-15T03:30:50;100934.66;;;4.71;90.66
76637;BME280;65532;52.124;5.480;2023-04-15T03:33:16;100932.16;;;4.69;91.08
76637;BME280;65532;52.124;5.480;2023-04-15T03:35:43;100936.50;;;4.70;91.31
76637;BME280;65532;52.124;5.480;2023-04-15T03:38:09;100923.69;;;4.66;90.74
76637;BME280;65532;52.124;5.480;2023-04-15T03:40:36;100936.25;;;4.65;91.53
76637;BME280;65532;52.124;5.480;2023-04-15T03:43:02;100936.66;;;4.62;90.67
76637;BME280;65532;52.124;5.480;2023-04-15T03:45:29;100940.53;;;4.60;90.84
76637;BME280;65532;52.124;5.480;2023-04-15T03:47:55;100944.69;;;4.62;91.26
76637;BME280;65532;52.124;5.480;2023-04-15T03:50:36;100948.94;;;4.57;91.01
76637;BME280;65532;52.124;5.480;2023-04-15T03:53:03;100956.34;;;4.55;90.49
76637;BME280;65532;52.124;5.480;2023-04-15T03:55:29;100951.38;;;4.51;91.17
76637;BME280;65532;52.124;5.480;2023-04-15T03:57:55;100957.75;;;4.50;90.96
76637;BME280;65532;52.124;5.480;2023-04-15T04:00:22;100960.81;;;4.47;91.24
76637;BME280;65532;52.124;5.480;2023-04-15T04:02:48;100962.03;;;4.45;91.31
76637;BME280;65532;52.124;5.480;2023-04-15T04:05:15;100959.53;;;4.43;91.28
76637;BME280;65532;52.124;5.480;2023-04-15T04:07:41;100969.41;;;4.43;91.42
76637;BME280;65532;52.124;5.480;2023-04-15T04:10:08;100960.66;;;4.34;91.05
76637;BME280;65532;52.124;5.480;2023-04-15T04:12:34;100976.72;;;4.34;91.49
76637;BME280;65532;52.124;5.480;2023-04-15T04:15:01;100975.06;;;4.33;91.40
76637;BME280;65532;52.124;5.480;2023-04-15T04:17:28;100980.81;;;4.30;91.19
76637;BME280;65532;52.124;5.480;2023-04-15T04:19:54;100979.16;;;4.29;90.93
76637;BME280;65532;52.124;5.480;2023-04-15T04:22:22;100986.69;;;4.26;91.52
76637;BME280;65532;52.124;5.480;2023-04-15T04:24:49;100986.63;;;4.19;91.03
76637;BME280;65532;52.124;5.480;2023-04-15T04:27:16;100990.97;;;4.20;91.04
76637;BME280;65532;52.124;5.480;2023-04-15T04:29:42;100996.25;;;4.13;90.89
76637;BME280;65532;52.124;5.480;2023-04-15T04:32:09;100992.75;;;4.13;90.73
76637;BME280;65532;52.124;5.480;2023-04-15T04:34:35;100994.22;;;4.15;90.43
76637;BME280;65532;52.124;5.480;2023-04-15T04:37:02;101007.78;;;4.14;90.38
76637;BME280;65532;52.124;5.480;2023-04-15T04:39:28;101012.50;;;4.12;90.18
76637;BME280;65532;52.124;5.480;2023-04-15T04:41:55;101010.84;;;4.11;88.72
76637;BME280;65532;52.124;5.480;2023-04-15T04:44:21;101021.84;;;4.16;88.68
76637;BME280;65532;52.124;5.480;2023-04-15T04:46:48;101018.31;;;4.15;89.08
76637;BME280;65532;52.124;5.480;2023-04-15T04:49:14;101022.84;;;4.15;89.77
76637;BME280;65532;52.124;5.480;2023-04-15T04:51:41;101025.06;;;4.11;89.54
76637;BME280;65532;52.124;5.480;2023-04-15T04:54:07;101027.56;;;4.13;89.34
76637;BME280;65532;52.124;5.480;2023-04-15T04:56:33;101026.72;;;4.12;88.85
76637;BME280;65532;52.124;5.480;2023-04-15T04:59:00;101034.59;;;4.14;89.27
76637;BME280;65532;52.124;5.480;2023-04-15T05:01:27;101050.34;;;4.09;89.23
76637;BME280;65532;52.124;5.480;2023-04-15T05:03:53;101053.41;;;4.06;88.67
76637;BME280;65532;52.124;5.480;2023-04-15T05:06:20;101049.91;;;4.05;88.83
76637;BME280;65532;52.124;5.480;2023-04-15T05:08:47;101046.22;;;4.06;88.44
76637;BME280;65532;52.124;5.480;2023-04-15T05:11:13;101059.22;;;4.09;88.28
76637;BME280;65532;52.124;5.480;2023-04-15T05:13:40;101063.75;;;4.09;87.83
76637;BME280;65532;52.124;5.480;2023-04-15T05:16:06;101072.81;;;4.08;87.82
76637;BME280;65532;52.124;5.480;2023-04-15T05:18:33;101073.81;;;4.07;87.41
76637;BME280;65532;52.124;5.480;2023-04-15T05:21:01;101070.44;;;4.13;87.07
76637;BME280;65532;52.124;5.480;2023-04-15T05:23:27;101084.84;;;4.12;87.66
76637;BME280;65532;52.124;5.480;2023-04-15T05:25:54;101087.22;;;4.07;87.50
76637;BME280;65532;52.124;5.480;2023-04-15T05:28:20;101089.91;;;4.07;87.71
76637;BME280;65532;52.124;5.480;2023-04-15T05:30:47;101089.72;;;4.08;87.58
76637;BME280;65532;52.124;5.480;2023-04-15T05:33:14;101090.19;;;4.12;87.53
76637;BME280;65532;52.124;5.480;2023-04-15T05:35:41;101096.47;;;4.19;86.62
76637;BME280;65532;52.124;5.480;2023-04-15T05:38:07;101102.59;;;4.28;86.98
76637;BME280;65532;52.124;5.480;2023-04-15T05:40:33;101109.06;;;4.33;87.53
76637;BME280;65532;52.124;5.480;2023-04-15T05:43:00;101107.47;;;4.39;88.01
76637;BME280;65532;52.124;5.480;2023-04-15T05:45:26;101116.66;;;4.44;87.10
76637;BME280;65532;52.124;5.480;2023-04-15T05:47:53;101115.06;;;4.50;87.71
76637;BME280;65532;52.124;5.480;2023-04-15T05:50:20;101114.16;;;4.58;87.06
76637;BME280;65532;52.124;5.480;2023-04-15T05:52:47;101110.72;;;4.64;86.84
76637;BME280;65532;52.124;5.480;2023-04-15T05:55:13;101122.75;;;4.68;87.02
76637;BME280;65532;52.124;5.480;2023-04-15T05:57:40;101118.31;;;4.75;87.03
76637;BME280;65532;52.124;5.480;2023-04-15T06:00:07;101125.59;;;4.81;86.77
76637;BME280;65532;52.124;5.480;2023-04-15T06:02:36;101129.56;;;4.85;86.79
76637;BME280;65532;52.124;5.480;2023-04-15T06:05:03;101132.53;;;4.90;86.09
76637;BME280;65532;52.124;5.480;2023-04-15T06:07:35;101139.19;;;4.94;86.36
76637;BME280;65532;52.124;5.480;2023-04-15T06:10:03;101136.78;;;4.99;85.89
76637;BME280;65532;52.124;5.480;2023-04-15T06:12:30;101141.03;;;5.08;86.16
76637;BME280;65532;52.124;5.480;2023-04-15T06:14:57;101145.88;;;5.20;86.01
76637;BME280;65532;52.124;5.480;2023-04-15T06:17:25;101149.50;;;5.27;87.07
76637;BME280;65532;52.124;5.480;2023-04-15T06:19:52;101157.72;;;5.40;86.97
76637;BME280;65532;52.124;5.480;2023-04-15T06:22:22;101155.91;;;5.47;87.61
76637;BME280;65532;52.124;5.480;2023-04-15T06:24:49;101163.88;;;5.55;87.56
76637;BME280;65532;52.124;5.480;2023-04-15T06:27:16;101166.50;;;5.70;88.17
76637;BME280;65532;52.124;5.480;2023-04-15T06:29:43;101165.59;;;5.84;88.34
76637;BME280;65532;52.124;5.480;2023-04-15T06:32:11;101170.16;;;6.05;88.08
76637;BME280;65532;52.124;5.480;2023-04-15T06:34:38;101178.97;;;6.20;88.61
76637;BME280;65532;52.124;5.480;2023-04-15T06:37:04;101182.81;;;6.33;89.15
76637;BME280;65532;52.124;5.480;2023-04-15T06:39:31;101181.22;;;6.45;89.56
76637;BME280;65532;52.124;5.480;2023-04-15T06:41:58;101180.91;;;6.61;89.61
76637;BME280;65532;52.124;5.480;2023-04-15T06:44:24;101196.38;;;6.80;89.96
76637;BME280;65532;52.124;5.480;2023-04-15T06:46:51;101188.00;;;6.97;89.93
76637;BME280;65532;52.124;5.480;2023-04-15T06:49:17;101200.91;;;7.14;90.27
76637;BME280;65532;52.124;5.480;2023-04-15T06:51:44;101199.94;;;7.29;90.43
76637;BME280;65532;52.124;5.480;2023-04-15T06:54:10;101207.47;;;7.46;90.23
76637;BME280;65532;52.124;5.480;2023-04-15T06:56:37;101204.63;;;7.68;90.40
76637;BME280;65532;52.124;5.480;2023-04-15T06:59:03;101214.41;;;7.82;91.08
76637;BME280;65532;52.124;5.480;2023-04-15T07:01:30;101221.28;;;8.04;91.06
76637;BME280;65532;52.124;5.480;2023-04-15T07:03:56;101222.97;;;8.19;90.93
76637;BME280;65532;52.124;5.480;2023-04-15T07:06:23;101234.22;;;8.42;90.68
76637;BME280;65532;52.124;5.480;2023-04-15T07:08:50;101235.06;;;8.62;90.06
76637;BME280;65532;52.124;5.480;2023-04-15T07:11:16;101245.22;;;8.87;89.62
76637;BME280;65532;52.124;5.480;2023-04-15T07:13:43;101233.94;;;9.61;88.87
76637;BME280;65532;52.124;5.480;2023-04-15T07:16:10;101234.28;;;9.78;85.90
76637;BME280;65532;52.124;5.480;2023-04-15T07:18:36;101245.00;;;9.98;85.03
76637;BME280;65532;52.124;5.480;2023-04-15T07:21:03;101247.25;;;10.39;83.97
76637;BME280;65532;52.124;5.480;2023-04-15T07:23:29;101246.50;;;11.00;82.31
76637;BME280;65532;52.124;5.480;2023-04-15T07:25:56;101247.41;;;11.85;79.97
76637;BME280;65532;52.124;5.480;2023-04-15T07:28:23;101256.31;;;12.04;75.56
76637;BME280;65532;52.124;5.480;2023-04-15T07:30:49;101257.50;;;12.62;73.09
76637;BME280;65532;52.124;5.480;2023-04-15T07:33:15;101261.69;;;13.23;69.81
76637;BME280;65532;52.124;5.480;2023-04-15T07:35:42;101262.72;;;13.45;68.05
76637;BME280;65532;52.124;5.480;2023-04-15T07:38:08;101257.66;;;14.05;64.86
76637;BME280;65532;52.124;5.480;2023-04-15T07:40:35;101268.75;;;14.32;62.90
76637;BME280;65532;52.124;5.480;2023-04-15T07:43:01;101270.25;;;14.23;61.79
76637;BME280;65532;52.124;5.480;2023-04-15T07:45:28;101276.69;;;14.34;60.18
76637;BME280;65532;52.124;5.480;2023-04-15T07:47:55;101279.81;;;13.69;60.52
76637;BME280;65532;52.124;5.480;2023-04-15T07:50:22;101287.13;;;13.28;61.96
76637;BME280;65532;52.124;5.480;2023-04-15T07:52:49;101287.66;;;13.54;62.11
76637;BME280;65532;52.124;5.480;2023-04-15T07:55:16;101278.31;;;13.38;61.62
76637;BME280;65532;52.124;5.480;2023-04-15T07:57:45;101289.94;;;13.10;63.49
76637;BME280;65532;52.124;5.480;2023-04-15T08:00:13;101293.97;;;13.42;62.27
76637;BME280;65532;52.124;5.480;2023-04-15T08:02:40;101286.03;;;13.81;61.46
76637;BME280;65532;52.124;5.480;2023-04-15T08:05:09;101288.38;;;14.18;59.70
76637;BME280;65532;52.124;5.480;2023-04-15T08:07:36;101298.59;;;14.11;58.31
76637;BME280;65532;52.124;5.480;2023-04-15T08:10:04;101299.19;;;13.72;59.66
76637;BME280;65532;52.124;5.480;2023-04-15T08:12:30;101300.19;;;13.95;58.71
76637;BME280;65532;52.124;5.480;2023-04-15T08:14:57;101298.88;;;14.54;58.12
76637;BME280;65532;52.124;5.480;2023-04-15T08:17:24;101308.97;;;14.71;57.27
76637;BME280;65532;52.124;5.480;2023-04-15T08:19:50;101309.44;;;14.51;56.38
76637;BME280;65532;52.124;5.480;2023-04-15T08:22:17;101313.22;;;14.50;55.47
76637;BME280;65532;52.124;5.480;2023-04-15T08:24:46;101306.00;;;14.27;56.30
76637;BME280;65532;52.124;5.480;2023-04-15T08:27:12;101310.06;;;14.86;56.37
76637;BME280;65532;52.124;5.480;2023-04-15T08:29:39;101308.13;;;14.53;55.20
76637;BME280;65532;52.124;5.480;2023-04-15T08:32:06;101316.69;;;14.17;56.30
76637;BME280;65532;52.124;5.480;2023-04-15T08:34:32;101336.22;;;14.14;55.03
76637;BME280;65532;52.124;5.480;2023-04-15T08:36:59;101323.75;;;13.49;56.94
76637;BME280;65532;52.124;5.480;2023-04-15T08:39:26;101333.97;;;12.88;58.28
76637;BME280;65532;52.124;5.480;2023-04-15T08:42:00;101332.53;;;12.03;60.17
76637;BME280;65532;52.124;5.480;2023-04-15T08:44:33;101340.16;;;11.76;61.59
76637;BME280;65532;52.124;5.480;2023-04-15T08:47:00;101350.19;;;11.32;62.09
76637;BME280;65532;52.124;5.480;2023-04-15T08:49:28;101350.19;;;11.32;63.20
76637;BME280;65532;52.124;5.480;2023-04-15T08:51:58;101365.75;;;11.43;62.86
76637;BME280;65532;52.124;5.480;2023-04-15T08:54:25;101344.91;;;11.19;63.48
76637;BME280;65532;52.124;5.480;2023-04-15T08:56:52;101366.81;;;10.92;64.49
76637;BME280;65532;52.124;5.480;2023-04-15T08:59:22;101367.03;;;11.16;64.24
76637;BME280;65532;52.124;5.480;2023-04-15T09:01:49;101378.25;;;11.44;66.01
76637;BME280;65532;52.124;5.480;2023-04-15T09:04:18;101374.81;;;11.74;64.58
76637;BME280;65532;52.124;5.480;2023-04-15T09:06:45;101378.13;;;11.76;65.58
76637;BME280;65532;52.124;5.480;2023-04-15T09:09:12;101374.13;;;11.60;64.71
76637;BME280;65532;52.124;5.480;2023-04-15T09:11:40;101377.97;;;11.52;64.95
76637;BME280;65532;52.124;5.480;2023-04-15T09:14:07;101397.31;;;11.37;65.61
76637;BME280;65532;52.124;5.480;2023-04-15T09:16:56;101390.03;;;11.56;65.34
76637;BME280;65532;52.124;5.480;2023-04-15T09:19:24;101399.69;;;11.70;67.22
76637;BME280;65532;52.124;5.480;2023-04-15T09:21:56;101395.44;;;11.56;66.68
76637;BME280;65532;52.124;5.480;2023-04-15T09:24:27;101400.56;;;11.21;66.59
76637;BME280;65532;52.124;5.480;2023-04-15T09:26:59;101402.50;;;11.14;67.73
76637;BME280;65532;52.124;5.480;2023-04-15T09:29:25;101408.28;;;11.18;67.63
76637;BME280;65532;52.124;5.480;2023-04-15T09:31:52;101409.28;;;10.98;68.63
76637;BME280;65532;52.124;5.480;2023-04-15T09:34:19;101407.31;;;11.12;68.47
76637;BME280;65532;52.124;5.480;2023-04-15T09:39:15;101419.06;;;11.49;67.85
76637;BME280;65532;52.124;5.480;2023-04-15T09:41:41;101409.66;;;11.52;68.28
76637;BME280;65532;52.124;5.480;2023-04-15T09:44:24;101423.31;;;11.63;68.10
76637;BME280;65532;52.124;5.480;2023-04-15T09:46:51;101415.03;;;11.58;67.27
76637;BME280;65532;52.124;5.480;2023-04-15T09:49:18;101415.06;;;11.52;69.65
76637;BME280;65532;52.124;5.480;2023-04-15T09:51:46;101423.75;;;11.60;67.12
76637;BME280;65532;52.124;5.480;2023-04-15T09:54:36;101424.78;;;11.41;68.69
76637;BME280;65532;52.124;5.480;2023-04-15T09:57:07;101427.94;;;11.38;70.54
76637;BME280;65532;52.124;5.480;2023-04-15T09:59:35;101423.00;;;11.53;69.24
76637;BME280;65532;52.124;5.480;2023-04-15T10:02:03;101428.00;;;11.56;68.83
76637;BME280;65532;52.124;5.480;2023-04-15T10:04:34;101429.56;;;11.64;68.66
76637;BME280;65532;52.124;5.480;2023-04-15T10:07:03;101423.63;;;11.55;66.59
76637;BME280;65532;52.124;5.480;2023-04-15T10:09:31;101433.63;;;11.80;68.05
76637;BME280;65532;52.124;5.480;2023-04-15T10:11:59;101447.72;;;11.88;67.12
76637;BME280;65532;52.124;5.480;2023-04-15T10:14:27;101438.91;;;12.11;67.72
76637;BME280;65532;52.124;5.480;2023-04-15T10:17:00;101442.66;;;12.28;66.80
76637;BME280;65532;52.124;5.480;2023-04-15T10:19:30;101447.66;;;12.32;66.81
76637;BME280;65532;52.124;5.480;2023-04-15T10:21:58;101454.66;;;12.21;65.69
76637;BME280;65532;52.124;5.480;2023-04-15T10:24:25;101455.56;;;12.15;66.29
76637;BME280;65532;52.124;5.480;2023-04-15T10:26:53;101465.81;;;12.13;66.21
76637;BME280;65532;52.124;5.480;2023-04-15T10:29:20;101449.03;;;12.04;65.07
76637;BME280;65532;52.124;5.480;2023-04-15T10:31:48;101454.84;;;12.56;66.45
76637;BME280;65532;52.124;5.480;2023-04-15T10:34:15;101453.19;;;12.55;65.12
76637;BME280;65532;52.124;5.480;2023-04-15T10:36:43;101456.81;;;12.67;65.26
76637;BME280;65532;52.124;5.480;2023-04-15T10:39:41;101464.09;;;12.18;65.56
76637;BME280;65532;52.124;5.480;2023-04-15T10:42:09;101464.16;;;12.12;66.60
76637;BME280;65532;52.124;5.480;2023-04-15T10:44:36;101470.81;;;12.16;66.75
76637;BME280;65532;52.124;5.480;2023-04-15T10:47:09;101461.16;;;12.20;67.01
76637;BME280;65532;52.124;5.480;2023-04-15T10:49:45;101470.00;;;12.15;64.74
76637;BME280;65532;52.124;5.480;2023-04-15T10:52:13;101478.34;;;12.32;65.84
76637;BME280;65532;52.124;5.480;2023-04-15T10:54:40;101479.00;;;12.27;66.09
76637;BME280;65532;52.124;5.480;2023-04-15T10:57:13;101483.78;;;12.32;65.58
76637;BME280;65532;52.124;5.480;2023-04-15T11:00:00;101489.59;;;12.17;65.13
76637;BME280;65532;52.124;5.480;2023-04-15T11:05:05;101487.59;;;12.61;65.10
76637;BME280;65532;52.124;5.480;2023-04-15T11:12:39;101492.50;;;12.52;64.38
76637;BME280;65532;52.124;5.480;2023-04-15T11:17:56;101485.41;;;13.00;65.06
76637;BME280;65532;52.124;5.480;2023-04-15T11:20:23;101503.06;;;12.79;63.77
76637;BME280;65532;52.124;5.480;2023-04-15T11:22:52;101490.97;;;12.75;64.35
76637;BME280;65532;52.124;5.480;2023-04-15T11:25:39;101499.53;;;12.90;62.80
76637;BME280;65532;52.124;5.480;2023-04-15T11:28:05;101497.59;;;13.09;63.12
76637;BME280;65532;52.124;5.480;2023-04-15T11:30:34;101485.53;;;13.05;63.62
76637;BME280;65532;52.124;5.480;2023-04-15T11:33:05;101504.31;;;13.06;63.82
76637;BME280;65532;52.124;5.480;2023-04-15T11:35:32;101495.00;;;13.44;62.21
76637;BME280;65532;52.124;5.480;2023-04-15T11:38:07;101493.50;;;13.60;60.54
76637;BME280;65532;52.124;5.480;2023-04-15T11:40:34;101492.19;;;13.62;61.62
76637;BME280;65532;52.124;5.480;2023-04-15T11:43:08;101498.22;;;14.23;59.59
76637;BME280;65532;52.124;5.480;2023-04-15T11:45:35;101514.34;;;13.89;59.80
76637;BME280;65532;52.124;5.480;2023-04-15T11:48:10;101515.13;;;13.55;60.34
76637;BME280;65532;52.124;5.480;2023-04-15T11:50:39;101500.06;;;12.99;59.64
76637;BME280;65532;52.124;5.480;2023-04-15T11:53:10;101505.44;;;13.17;61.32
76637;BME280;65532;52.124;5.480;2023-04-15T11:55:50;101500.28;;;13.27;60.82
76637;BME280;65532;52.124;5.480;2023-04-15T11:58:22;101512.34;;;13.01;60.81
76637;BME280;65532;52.124;5.480;2023-04-15T12:00:53;101507.38;;;13.28;60.79
76637;BME280;65532;52.124;5.480;2023-04-15T12:03:38;101516.53;;;13.45;60.59
76637;BME280;65532;52.124;5.480;2023-04-15T12:13:59;101527.91;;;13.66;60.57
76637;BME280;65532;52.124;5.480;2023-04-15T12:16:28;101540.03;;;13.28;60.91
76637;BME280;65532;52.124;5.480;2023-04-15T12:18:56;101544.72;;;13.03;63.39
76637;BME280;65532;52.124;5.480;2023-04-15T12:21:25;101550.75;;;13.05;64.02
76637;BME280;65532;52.124;5.480;2023-04-15T12:23:54;101553.28;;;12.88;64.04
76637;BME280;65532;52.124;5.480;2023-04-15T12:26:29;101550.47;;;12.65;65.12
76637;BME280;65532;52.124;5.480;2023-04-15T12:29:01;101549.84;;;12.81;63.59
76637;BME280;65532;52.124;5.480;2023-04-15T12:31:27;101554.88;;;12.77;65.45
76637;BME280;65532;52.124;5.480;2023-04-15T12:33:55;101559.53;;;13.07;64.20
76637;BME280;65532;52.124;5.480;2023-04-15T12:36:22;101577.50;;;13.08;62.08
76637;BME280;65532;52.124;5.480;2023-04-15T12:38:49;101568.47;;;12.77;62.45
76637;BME280;65532;52.124;5.480;2023-04-15T12:41:15;101552.44;;;13.06;61.23
76637;BME280;65532;52.124;5.480;2023-04-15T12:43:45;101561.25;;;12.71;62.70
76637;BME280;65532;52.124;5.480;2023-04-15T12:46:14;101557.63;;;12.59;62.77
76637;BME280;65532;52.124;5.480;2023-04-15T12:48:41;101569.03;;;12.49;62.59
76637;BME280;65532;52.124;5.480;2023-04-15T12:51:07;101579.53;;;12.64;62.36
76637;BME280;65532;52.124;5.480;2023-04-15T12:53:34;101577.63;;;12.65;63.65
76637;BME280;65532;52.124;5.480;2023-04-15T12:56:00;101580.72;;;12.50;64.00
76637;BME280;65532;52.124;5.480;2023-04-15T12:58:27;101590.22;;;12.59;63.82
76637;BME280;65532;52.124;5.480;2023-04-15T13:00:54;101588.19;;;12.54;64.64
76637;BME280;65532;52.124;5.480;2023-04-15T13:03:20;101593.09;;;12.64;65.00
76637;BME280;65532;52.124;5.480;2023-04-15T13:05:47;101589.16;;;12.60;64.65
76637;BME280;65532;52.124;5.480;2023-04-15T13:08:13;101609.31;;;12.71;65.51
76637;BME280;65532;52.124;5.480;2023-04-15T13:10:40;101590.97;;;12.48;65.03
76637;BME280;65532;52.124;5.480;2023-04-15T13:13:07;101605.63;;;12.65;65.58
76637;BME280;65532;52.124;5.480;2023-04-15T13:15:34;101604.25;;;12.74;63.48
76637;BME280;65532;52.124;5.480;2023-04-15T13:18:00;101611.47;;;12.44;64.59
76637;BME280;65532;52.124;5.480;2023-04-15T13:20:27;101618.84;;;12.18;66.27